Time,TemperatureF,DewpointF,PressureIn,WindDirection,WindDirectionDegrees,WindSpeedMPH,WindSpeedGustMPH,Humidity,HourlyPrecipIn,Conditions,Clouds,dailyrainin,SoftwareType,DateUTC
2013-05-15 00:00:00,70.5,53.6,29.38,SSE,158,0.0,0.0,55,0.00,,SKC,0.00,VWS V12.07,2013-05-15 04:00:00,
2013-05-15 00:01:00,70.5,53.6,29.38,SSE,158,0.0,0.0,55,0.00,,SKC,0.00,VWS V12.07,2013-05-15 04:01:00,
2013-05-15 00:06:00,70.8,54.3,29.38,West,270,0.0,0.0,56,0.00,,SKC,0.00,VWS V12.07,2013-05-15 04:06:00,
2013-05-15 00:11:00,71.2,54.7,29.38,SSE,158,0.0,0.0,56,0.00,,SKC,0.00,VWS V12.07,2013-05-15 04:11:00,
2013-05-15 00:16:00,71.4,55.4,29.38,South,180,0.0,0.0,57,0.00,,SKC,0.00,VWS V12.07,2013-05-15 04:16:00,
2013-05-15 00:21:00,71.7,55.7,29.38,SE,135,0.8,0.8,57,0.00,,SKC,0.00,VWS V12.07,2013-05-15 04:21:00,
2013-05-15 00:26:00,72.1,56.0,29.38,SSE,158,0.0,0.8,57,0.00,,SKC,0.00,VWS V12.07,2013-05-15 04:26:00,
2013-05-15 00:31:00,72.1,56.0,29.38,SSE,158,0.0,3.1,57,0.00,,SKC,0.00,VWS V12.07,2013-05-15 04:31:00,
2013-05-15 00:36:00,72.3,56.7,29.38,SSE,158,0.0,0.0,58,0.00,,SKC,0.00,VWS V12.07,2013-05-15 04:36:00,
2013-05-15 00:41:00,72.5,56.9,29.38,SW,225,2.9,2.9,58,0.00,,SKC,0.00,VWS V12.07,2013-05-15 04:41:00,
2013-05-15 00:46:00,72.6,57.0,29.38,East,90,0.0,2.9,58,0.00,,SKC,0.00,VWS V12.07,2013-05-15 04:46:00,
2013-05-15 00:51:00,72.6,57.0,29.38,South,180,1.7,2.9,58,0.00,,SKC,0.00,VWS V12.07,2013-05-15 04:51:00,
2013-05-15 00:56:00,72.6,57.0,29.38,SE,135,0.0,1.7,58,0.00,,SKC,0.00,VWS V12.07,2013-05-15 04:56:00,
2013-05-15 01:00:00,72.6,57.0,29.38,SE,135,0.0,1.7,58,0.00,,SKC,0.00,VWS V12.07,2013-05-15 05:00:00,
2013-05-15 01:01:00,72.6,57.0,29.38,SE,135,0.0,1.7,58,0.00,,SKC,0.00,VWS V12.07,2013-05-15 05:01:00,
2013-05-15 01:06:00,72.6,57.5,29.38,SE,135,0.0,0.0,59,0.00,,SKC,0.00,VWS V12.07,2013-05-15 05:06:00,
2013-05-15 01:10:00,72.5,57.4,29.38,SSE,158,1.3,1.3,59,0.00,,SKC,0.00,VWS V12.07,2013-05-15 05:10:00,
2013-05-15 01:11:00,72.5,57.4,29.38,SSE,158,1.3,1.3,59,0.00,,SKC,0.00,VWS V12.07,2013-05-15 05:11:00,
2013-05-15 01:16:00,72.5,57.4,29.38,South,180,0.0,1.3,59,0.00,,SKC,0.00,VWS V12.07,2013-05-15 05:16:00,
2013-05-15 01:20:00,72.3,57.2,29.37,SSE,158,1.7,1.7,59,0.00,,SKC,0.00,VWS V12.07,2013-05-15 05:20:00,
2013-05-15 01:21:00,72.3,57.2,29.37,SSE,158,1.7,1.7,59,0.00,,SKC,0.00,VWS V12.07,2013-05-15 05:21:00,
2013-05-15 01:26:00,72.3,57.7,29.36,SE,135,2.0,2.2,60,0.00,,SKC,0.00,VWS V12.07,2013-05-15 05:26:00,
2013-05-15 01:30:00,72.3,57.7,29.36,SSE,158,2.0,2.2,60,0.00,,SKC,0.00,VWS V12.07,2013-05-15 05:30:00,
2013-05-15 01:31:00,72.3,57.7,29.36,SSE,158,2.0,2.2,60,0.00,,SKC,0.00,VWS V12.07,2013-05-15 05:31:00,
2013-05-15 01:36:00,72.3,57.7,29.35,SSE,158,3.1,3.1,60,0.00,,SKC,0.00,VWS V12.07,2013-05-15 05:36:00,
2013-05-15 01:40:00,72.3,57.7,29.35,SE,135,0.0,5.8,60,0.00,,SKC,0.00,VWS V12.07,2013-05-15 05:40:00,
2013-05-15 01:41:00,72.3,57.7,29.35,SE,135,0.0,0.0,60,0.00,,SKC,0.00,VWS V12.07,2013-05-15 05:41:00,
2013-05-15 01:46:00,72.3,57.7,29.35,SSE,158,2.6,2.6,60,0.00,,SKC,0.00,VWS V12.07,2013-05-15 05:46:00,
2013-05-15 01:50:00,72.3,57.7,29.35,WNW,292,0.0,2.6,60,0.00,,SKC,0.00,VWS V12.07,2013-05-15 05:50:00,
2013-05-15 01:51:00,72.3,57.7,29.34,WNW,292,0.0,0.0,60,0.00,,SKC,0.00,VWS V12.07,2013-05-15 05:51:00,
2013-05-15 01:56:00,72.3,58.1,29.34,East,90,0.0,0.0,61,0.00,,SKC,0.00,VWS V12.07,2013-05-15 05:56:00,
2013-05-15 02:00:00,72.3,57.7,29.33,East,90,0.0,0.0,60,0.00,,SKC,0.00,VWS V12.07,2013-05-15 06:00:00,
2013-05-15 02:01:00,72.3,57.7,29.34,SE,135,1.1,1.1,60,0.00,,SKC,0.00,VWS V12.07,2013-05-15 06:01:00,
2013-05-15 02:06:00,72.3,57.7,29.34,South,180,0.0,1.1,60,0.00,,SKC,0.00,VWS V12.07,2013-05-15 06:06:00,
2013-05-15 02:10:00,72.3,57.7,29.34,NW,315,0.0,1.1,60,0.00,,SKC,0.00,VWS V12.07,2013-05-15 06:10:00,
2013-05-15 02:11:00,72.3,57.7,29.34,NW,315,0.0,0.0,60,0.00,,SKC,0.00,VWS V12.07,2013-05-15 06:11:00,
2013-05-15 02:16:00,72.3,57.7,29.34,SE,135,0.0,0.0,60,0.00,,SKC,0.00,VWS V12.07,2013-05-15 06:16:00,
2013-05-15 02:20:00,72.3,57.7,29.34,SSE,158,2.9,2.9,60,0.00,,SKC,0.00,VWS V12.07,2013-05-15 06:20:00,
2013-05-15 02:21:00,72.3,57.7,29.34,SSE,158,2.9,2.9,60,0.00,,SKC,0.00,VWS V12.07,2013-05-15 06:21:00,
2013-05-15 02:26:00,72.3,57.7,29.33,SSE,158,0.0,2.9,60,0.00,,SKC,0.00,VWS V12.07,2013-05-15 06:26:00,
2013-05-15 02:30:00,72.3,58.1,29.33,SE,135,0.0,2.9,61,0.00,,SKC,0.00,VWS V12.07,2013-05-15 06:30:00,
2013-05-15 02:31:00,72.1,57.9,29.33,SE,135,0.0,0.0,61,0.00,,SKC,0.00,VWS V12.07,2013-05-15 06:31:00,
2013-05-15 02:36:00,72.1,57.9,29.33,SW,225,0.0,0.0,61,0.00,,SKC,0.00,VWS V12.07,2013-05-15 06:36:00,
2013-05-15 02:40:00,71.9,57.7,29.33,SSE,158,0.0,1.7,61,0.00,,SKC,0.00,VWS V12.07,2013-05-15 06:40:00,
2013-05-15 02:41:00,71.9,57.7,29.33,SSE,158,0.0,0.0,61,0.00,,SKC,0.00,VWS V12.07,2013-05-15 06:41:00,
2013-05-15 02:46:00,72.1,57.9,29.32,SSE,158,0.0,2.0,61,0.00,,SKC,0.00,VWS V12.07,2013-05-15 06:46:00,
2013-05-15 02:50:00,72.1,57.9,29.32,South,180,0.0,2.0,61,0.00,,SKC,0.00,VWS V12.07,2013-05-15 06:50:00,
2013-05-15 02:51:00,72.1,57.9,29.32,South,180,0.0,0.0,61,0.00,,SKC,0.00,VWS V12.07,2013-05-15 06:51:00,
2013-05-15 02:56:00,72.1,57.5,29.32,SSE,158,3.3,3.3,60,0.00,,SKC,0.00,VWS V12.07,2013-05-15 06:56:00,
2013-05-15 03:00:00,72.1,57.5,29.33,South,180,0.0,3.3,60,0.00,,SKC,0.00,VWS V12.07,2013-05-15 07:00:00,
2013-05-15 03:01:00,72.1,57.5,29.33,South,180,0.0,0.0,60,0.00,,SKC,0.00,VWS V12.07,2013-05-15 07:01:00,
2013-05-15 03:06:00,72.1,57.5,29.33,SSE,158,0.0,1.5,60,0.00,,SKC,0.00,VWS V12.07,2013-05-15 07:06:00,
2013-05-15 03:10:00,72.1,57.5,29.33,SSW,202,0.0,3.5,60,0.00,,SKC,0.00,VWS V12.07,2013-05-15 07:10:00,
2013-05-15 03:11:00,72.1,57.5,29.33,SSW,202,0.0,0.0,60,0.00,,SKC,0.00,VWS V12.07,2013-05-15 07:11:00,
2013-05-15 03:16:00,72.1,57.5,29.32,SE,135,0.0,0.0,60,0.00,,SKC,0.00,VWS V12.07,2013-05-15 07:16:00,
2013-05-15 03:20:00,72.3,57.2,29.32,SSE,158,2.9,2.9,59,0.00,,SKC,0.00,VWS V12.07,2013-05-15 07:20:00,
2013-05-15 03:21:00,72.3,57.2,29.32,SSE,158,2.9,2.9,59,0.00,,SKC,0.00,VWS V12.07,2013-05-15 07:21:00,
2013-05-15 03:26:00,72.3,57.2,29.32,SSE,158,1.1,2.9,59,0.00,,SKC,0.00,VWS V12.07,2013-05-15 07:26:00,
2013-05-15 03:30:00,72.3,57.2,29.32,South,180,0.0,2.9,59,0.00,,SKC,0.00,VWS V12.07,2013-05-15 07:30:00,
2013-05-15 03:31:00,72.3,57.2,29.32,SSW,202,0.0,0.0,59,0.00,,SKC,0.00,VWS V12.07,2013-05-15 07:31:00,
2013-05-15 03:36:00,72.3,57.2,29.32,SSE,158,0.0,0.0,59,0.00,,SKC,0.00,VWS V12.07,2013-05-15 07:36:00,
2013-05-15 03:40:00,72.5,56.9,29.32,ESE,112,0.0,0.0,58,0.00,,SKC,0.00,VWS V12.07,2013-05-15 07:40:00,
2013-05-15 03:41:00,72.5,56.9,29.32,ESE,112,0.0,0.0,58,0.00,,SKC,0.00,VWS V12.07,2013-05-15 07:41:00,
2013-05-15 03:46:00,72.5,56.9,29.32,South,180,0.0,0.0,58,0.00,,SKC,0.00,VWS V12.07,2013-05-15 07:46:00,
2013-05-15 03:50:00,72.5,56.9,29.32,South,180,1.5,1.5,58,0.00,,SKC,0.00,VWS V12.07,2013-05-15 07:50:00,
2013-05-15 03:51:00,72.5,56.9,29.32,South,180,1.5,1.5,58,0.00,,SKC,0.00,VWS V12.07,2013-05-15 07:51:00,
2013-05-15 03:56:00,72.5,56.9,29.32,SE,135,4.4,4.4,58,0.00,,SKC,0.00,VWS V12.07,2013-05-15 07:56:00,
2013-05-15 04:00:00,72.5,56.9,29.32,SSE,158,2.4,4.4,58,0.00,,SKC,0.00,VWS V12.07,2013-05-15 08:00:00,
2013-05-15 04:01:00,72.3,56.7,29.32,NNE,22,0.0,2.4,58,0.00,,SKC,0.00,VWS V12.07,2013-05-15 08:01:00,
2013-05-15 04:06:00,72.3,56.2,29.31,SSE,158,0.0,2.4,57,0.00,,SKC,0.00,VWS V12.07,2013-05-15 08:06:00,
2013-05-15 04:10:00,72.3,56.2,29.31,SE,135,1.3,4.9,57,0.00,,SKC,0.00,VWS V12.07,2013-05-15 08:10:00,
2013-05-15 04:11:00,72.3,56.2,29.31,SE,135,1.3,1.3,57,0.00,,SKC,0.00,VWS V12.07,2013-05-15 08:11:00,
2013-05-15 04:16:00,72.3,56.2,29.31,SE,135,0.6,3.1,57,0.00,,SKC,0.00,VWS V12.07,2013-05-15 08:16:00,
2013-05-15 04:20:00,72.3,56.2,29.31,WNW,292,0.0,3.1,57,0.00,,SKC,0.00,VWS V12.07,2013-05-15 08:20:00,
2013-05-15 04:21:00,72.3,56.2,29.31,WNW,292,0.0,0.0,57,0.00,,SKC,0.00,VWS V12.07,2013-05-15 08:21:00,
2013-05-15 04:26:00,72.3,55.7,29.31,SSE,158,2.0,2.0,56,0.00,,SKC,0.00,VWS V12.07,2013-05-15 08:26:00,
2013-05-15 04:30:00,72.3,55.7,29.31,South,180,0.0,2.0,56,0.00,,SKC,0.00,VWS V12.07,2013-05-15 08:30:00,
2013-05-15 04:32:00,72.3,55.7,29.31,SE,135,0.0,0.0,56,0.00,,SKC,0.00,VWS V12.07,2013-05-15 08:32:00,
2013-05-15 04:37:00,72.3,55.7,29.31,SSW,202,1.7,5.8,56,0.00,,SKC,0.00,VWS V12.07,2013-05-15 08:37:00,
2013-05-15 04:40:00,72.3,55.7,29.31,South,180,1.3,5.8,56,0.00,,SKC,0.00,VWS V12.07,2013-05-15 08:40:00,
2013-05-15 04:42:00,72.3,55.7,29.30,South,180,1.3,1.3,56,0.00,,SKC,0.00,VWS V12.07,2013-05-15 08:42:00,
2013-05-15 04:47:00,72.3,55.2,29.31,SSE,158,0.6,2.4,55,0.00,,SKC,0.00,VWS V12.07,2013-05-15 08:47:00,
2013-05-15 04:50:00,72.3,55.2,29.31,SE,135,0.0,2.4,55,0.00,,SKC,0.00,VWS V12.07,2013-05-15 08:50:00,
2013-05-15 04:52:00,72.3,55.2,29.31,SE,135,0.0,0.0,55,0.00,,SKC,0.00,VWS V12.07,2013-05-15 08:52:00,
2013-05-15 04:57:00,72.3,55.2,29.31,SSW,202,0.2,4.6,55,0.00,,SKC,0.00,VWS V12.07,2013-05-15 08:57:00,
2013-05-15 05:00:00,72.3,55.2,29.31,WSW,248,0.6,4.6,55,0.00,,SKC,0.00,VWS V12.07,2013-05-15 09:00:00,
2013-05-15 05:01:00,72.3,55.2,29.31,WSW,248,0.6,4.6,55,0.00,,SKC,0.00,VWS V12.07,2013-05-15 09:01:00,
2013-05-15 05:06:00,72.3,55.2,29.31,WSW,248,0.6,4.6,55,0.00,,SKC,0.00,VWS V12.07,2013-05-15 09:06:00,
2013-05-15 05:56:00,72.3,55.2,29.31,WSW,248,0.6,4.6,55,0.00,,SKC,0.00,VWS V12.07,2013-05-15 09:56:00,
2013-05-15 06:01:00,72.3,55.2,29.31,WSW,248,0.6,4.6,55,0.00,,SKC,0.00,VWS V12.07,2013-05-15 10:01:00,
2013-05-15 06:06:00,72.3,55.2,29.31,WSW,248,0.6,4.6,55,0.00,,SKC,0.00,VWS V12.07,2013-05-15 10:06:00,
2013-05-15 06:52:00,72.3,55.2,29.31,WSW,248,0.6,4.6,55,0.00,,SKC,0.00,VWS V12.07,2013-05-15 10:52:00,